sensor_id;sensor_type;location;lat;lon;timestamp;temperature;humidity
13970;DHT22;7057;49.984;8.404;2022-09-06T00:01:57;19.40;99.90
13970;DHT22;7057;49.984;8.404;2022-09-06T00:04:24;19.40;99.90
13970;DHT22;7057;49.984;8.404;2022-09-06T00:06:53;19.40;99.90
13970;DHT22;7057;49.984;8.404;2022-09-06T00:09:20;19.30;99.90
13970;DHT22;7057;49.984;8.404;2022-09-06T00:11:47;19.20;99.90
13970;DHT22;7057;49.984;8.404;2022-09-06T00:14:14;19.30;99.90
13970;DHT22;7057;49.984;8.404;2022-09-06T00:16:41;19.20;99.90
13970;DHT22;7057;49.984;8.404;2022-09-06T00:19:08;19.20;99.90
13970;DHT22;7057;49.984;8.404;2022-09-06T00:21:35;19.10;99.90
13970;DHT22;7057;49.984;8.404;2022-09-06T00:24:04;19.20;99.90
13970;DHT22;7057;49.984;8.404;2022-09-06T00:26:31;19.10;99.90
13970;DHT22;7057;49.984;8.404;2022-09-06T00:28:58;19.20;99.90
13970;DHT22;7057;49.984;8.404;2022-09-06T00:31:26;19.30;99.90
13970;DHT22;7057;49.984;8.404;2022-09-06T00:33:53;19.20;99.90
13970;DHT22;7057;49.984;8.404;2022-09-06T00:36:21;19.20;99.90
13970;DHT22;7057;49.984;8.404;2022-09-06T00:38:48;19.10;99.90
13970;DHT22;7057;49.984;8.404;2022-09-06T00:41:17;19.00;99.90
13970;DHT22;7057;49.984;8.404;2022-09-06T00:43:45;19.10;99.90
13970;DHT22;7057;49.984;8.404;2022-09-06T00:46:15;19.10;99.90
13970;DHT22;7057;49.984;8.404;2022-09-06T00:48:44;19.20;99.90
13970;DHT22;7057;49.984;8.404;2022-09-06T00:51:14;19.20;99.90
13970;DHT22;7057;49.984;8.404;2022-09-06T00:53:42;19.20;99.90
13970;DHT22;7057;49.984;8.404;2022-09-06T00:56:10;19.30;99.90
13970;DHT22;7057;49.984;8.404;2022-09-06T00:58:39;19.30;99.90
13970;DHT22;7057;49.984;8.404;2022-09-06T01:01:06;19.40;99.90
13970;DHT22;7057;49.984;8.404;2022-09-06T01:03:34;19.50;99.90
13970;DHT22;7057;49.984;8.404;2022-09-06T01:06:13;19.50;99.90
13970;DHT22;7057;49.984;8.404;2022-09-06T01:08:56;19.60;99.90
13970;DHT22;7057;49.984;8.404;2022-09-06T01:11:41;19.50;99.90
13970;DHT22;7057;49.984;8.404;2022-09-06T01:14:22;19.50;99.90
13970;DHT22;7057;49.984;8.404;2022-09-06T01:16:58;19.60;99.90
13970;DHT22;7057;49.984;8.404;2022-09-06T01:19:43;19.40;99.90
13970;DHT22;7057;49.984;8.404;2022-09-06T01:22:36;19.40;99.90
13970;DHT22;7057;49.984;8.404;2022-09-06T01:25:30;19.50;99.90
13970;DHT22;7057;49.984;8.404;2022-09-06T01:28:23;19.40;99.90
13970;DHT22;7057;49.984;8.404;2022-09-06T01:31:01;19.50;99.90
13970;DHT22;7057;49.984;8.404;2022-09-06T01:33:35;19.60;99.90
13970;DHT22;7057;49.984;8.404;2022-09-06T01:36:07;19.60;99.90
13970;DHT22;7057;49.984;8.404;2022-09-06T01:38:35;19.60;99.90
13970;DHT22;7057;49.984;8.404;2022-09-06T01:41:03;19.30;99.90
13970;DHT22;7057;49.984;8.404;2022-09-06T01:43:35;19.20;99.90
13970;DHT22;7057;49.984;8.404;2022-09-06T01:46:08;19.30;99.90
13970;DHT22;7057;49.984;8.404;2022-09-06T01:48:51;19.60;99.90
13970;DHT22;7057;49.984;8.404;2022-09-06T01:51:27;20.40;99.90
13970;DHT22;7057;49.984;8.404;2022-09-06T01:54:05;20.90;99.90
13970;DHT22;7057;49.984;8.404;2022-09-06T01:56:44;21.20;99.90
13970;DHT22;7057;49.984;8.404;2022-09-06T01:59:46;21.50;99.90
13970;DHT22;7057;49.984;8.404;2022-09-06T02:02:22;21.60;99.90
13970;DHT22;7057;49.984;8.404;2022-09-06T02:04:54;21.70;99.90
13970;DHT22;7057;49.984;8.404;2022-09-06T02:07:25;21.80;99.90
13970;DHT22;7057;49.984;8.404;2022-09-06T02:09:56;21.80;99.90
13970;DHT22;7057;49.984;8.404;2022-09-06T02:12:25;21.80;99.90
13970;DHT22;7057;49.984;8.404;2022-09-06T02:14:57;21.80;99.90
13970;DHT22;7057;49.984;8.404;2022-09-06T02:17:29;21.70;99.90
13970;DHT22;7057;49.984;8.404;2022-09-06T02:20:01;21.70;99.90
13970;DHT22;7057;49.984;8.404;2022-09-06T02:22:32;21.70;99.90
13970;DHT22;7057;49.984;8.404;2022-09-06T02:25:01;21.70;99.90
13970;DHT22;7057;49.984;8.404;2022-09-06T02:27:29;21.60;99.90
13970;DHT22;7057;49.984;8.404;2022-09-06T02:29:58;21.60;99.90
13970;DHT22;7057;49.984;8.404;2022-09-06T02:32:28;21.60;99.90
13970;DHT22;7057;49.984;8.404;2022-09-06T02:34:56;21.40;99.90
13970;DHT22;7057;49.984;8.404;2022-09-06T02:37:24;21.40;99.90
13970;DHT22;7057;49.984;8.404;2022-09-06T02:39:51;21.30;99.90
13970;DHT22;7057;49.984;8.404;2022-09-06T02:42:20;21.30;99.90
13970;DHT22;7057;49.984;8.404;2022-09-06T02:44:48;21.10;99.90
13970;DHT22;7057;49.984;8.404;2022-09-06T02:47:17;21.00;99.90
13970;DHT22;7057;49.984;8.404;2022-09-06T02:49:44;20.80;99.90
13970;DHT22;7057;49.984;8.404;2022-09-06T02:52:11;20.80;99.90
13970;DHT22;7057;49.984;8.404;2022-09-06T02:54:38;20.60;99.90
13970;DHT22;7057;49.984;8.404;2022-09-06T02:57:05;20.50;99.90
13970;DHT22;7057;49.984;8.404;2022-09-06T02:59:33;20.30;99.90
13970;DHT22;7057;49.984;8.404;2022-09-06T03:02:00;20.20;99.90
13970;DHT22;7057;49.984;8.404;2022-09-06T03:04:29;20.30;99.90
13970;DHT22;7057;49.984;8.404;2022-09-06T03:06:57;20.10;99.90
13970;DHT22;7057;49.984;8.404;2022-09-06T03:09:24;20.20;99.90
13970;DHT22;7057;49.984;8.404;2022-09-06T03:11:52;20.10;99.90
13970;DHT22;7057;49.984;8.404;2022-09-06T03:14:19;20.10;99.90
13970;DHT22;7057;49.984;8.404;2022-09-06T03:16:46;19.90;99.90
13970;DHT22;7057;49.984;8.404;2022-09-06T03:19:13;20.10;99.90
13970;DHT22;7057;49.984;8.404;2022-09-06T03:21:42;20.10;99.90
13970;DHT22;7057;49.984;8.404;2022-09-06T03:24:09;20.10;99.90
13970;DHT22;7057;49.984;8.404;2022-09-06T03:26:36;20.10;99.90
13970;DHT22;7057;49.984;8.404;2022-09-06T03:29:03;20.00;99.90
13970;DHT22;7057;49.984;8.404;2022-09-06T03:31:30;19.90;99.90
13970;DHT22;7057;49.984;8.404;2022-09-06T03:33:58;20.30;99.90
13970;DHT22;7057;49.984;8.404;2022-09-06T03:36:25;19.80;99.90
13970;DHT22;7057;49.984;8.404;2022-09-06T03:38:54;19.80;99.90
13970;DHT22;7057;49.984;8.404;2022-09-06T03:41:21;20.00;99.90
13970;DHT22;7057;49.984;8.404;2022-09-06T03:43:48;19.90;99.90
13970;DHT22;7057;49.984;8.404;2022-09-06T03:46:15;19.90;99.90
13970;DHT22;7057;49.984;8.404;2022-09-06T03:48:43;19.80;99.90
13970;DHT22;7057;49.984;8.404;2022-09-06T03:51:10;19.80;99.90
13970;DHT22;7057;49.984;8.404;2022-09-06T03:53:37;20.00;99.90
13970;DHT22;7057;49.984;8.404;2022-09-06T03:56:05;20.00;99.90
13970;DHT22;7057;49.984;8.404;2022-09-06T03:58:33;19.80;99.90
13970;DHT22;7057;49.984;8.404;2022-09-06T04:01:05;19.80;99.90
13970;DHT22;7057;49.984;8.404;2022-09-06T04:03:33;19.90;99.90
13970;DHT22;7057;49.984;8.404;2022-09-06T04:06:01;19.80;99.90
13970;DHT22;7057;49.984;8.404;2022-09-06T04:08:28;19.70;99.90
13970;DHT22;7057;49.984;8.404;2022-09-06T04:10:57;19.70;99.90
13970;DHT22;7057;49.984;8.404;2022-09-06T04:13:26;19.50;99.90
13970;DHT22;7057;49.984;8.404;2022-09-06T04:15:54;19.40;99.90
13970;DHT22;7057;49.984;8.404;2022-09-06T04:18:21;19.30;99.90
13970;DHT22;7057;49.984;8.404;2022-09-06T04:20:50;19.20;99.90
13970;DHT22;7057;49.984;8.404;2022-09-06T04:23:18;19.20;99.90
13970;DHT22;7057;49.984;8.404;2022-09-06T04:25:46;19.10;99.90
13970;DHT22;7057;49.984;8.404;2022-09-06T04:28:13;19.20;99.90
13970;DHT22;7057;49.984;8.404;2022-09-06T04:30:42;19.20;99.90
13970;DHT22;7057;49.984;8.404;2022-09-06T04:33:09;19.20;99.90
13970;DHT22;7057;49.984;8.404;2022-09-06T04:35:37;19.20;99.90
13970;DHT22;7057;49.984;8.404;2022-09-06T04:38:04;19.20;99.90
13970;DHT22;7057;49.984;8.404;2022-09-06T04:40:31;19.20;99.90
13970;DHT22;7057;49.984;8.404;2022-09-06T04:42:58;19.30;99.90
13970;DHT22;7057;49.984;8.404;2022-09-06T04:45:26;19.20;99.90
13970;DHT22;7057;49.984;8.404;2022-09-06T04:47:54;19.00;99.90
13970;DHT22;7057;49.984;8.404;2022-09-06T04:50:21;18.90;99.90
13970;DHT22;7057;49.984;8.404;2022-09-06T04:52:48;19.10;99.90
13970;DHT22;7057;49.984;8.404;2022-09-06T04:55:16;19.00;99.90
13970;DHT22;7057;49.984;8.404;2022-09-06T04:57:43;19.00;99.90
13970;DHT22;7057;49.984;8.404;2022-09-06T05:00:11;18.80;99.90
13970;DHT22;7057;49.984;8.404;2022-09-06T05:02:38;18.80;99.90
13970;DHT22;7057;49.984;8.404;2022-09-06T05:05:07;18.50;99.90
13970;DHT22;7057;49.984;8.404;2022-09-06T05:07:34;18.50;99.90
13970;DHT22;7057;49.984;8.404;2022-09-06T05:10:01;18.50;99.90
13970;DHT22;7057;49.984;8.404;2022-09-06T05:12:28;18.40;99.90
13970;DHT22;7057;49.984;8.404;2022-09-06T05:14:56;18.50;99.90
13970;DHT22;7057;49.984;8.404;2022-09-06T05:17:23;18.50;99.90
13970;DHT22;7057;49.984;8.404;2022-09-06T05:19:50;18.50;99.90
13970;DHT22;7057;49.984;8.404;2022-09-06T05:22:18;18.50;99.90
13970;DHT22;7057;49.984;8.404;2022-09-06T05:24:45;18.50;99.90
13970;DHT22;7057;49.984;8.404;2022-09-06T05:27:13;18.30;99.90
13970;DHT22;7057;49.984;8.404;2022-09-06T05:29:40;18.30;99.90
13970;DHT22;7057;49.984;8.404;2022-09-06T05:32:07;18.30;99.90
13970;DHT22;7057;49.984;8.404;2022-09-06T05:34:34;18.30;99.90
13970;DHT22;7057;49.984;8.404;2022-09-06T05:37:01;18.30;99.90
13970;DHT22;7057;49.984;8.404;2022-09-06T05:39:30;18.30;99.90
13970;DHT22;7057;49.984;8.404;2022-09-06T05:41:57;18.30;99.90
13970;DHT22;7057;49.984;8.404;2022-09-06T05:44:25;18.40;99.90
13970;DHT22;7057;49.984;8.404;2022-09-06T05:46:52;18.50;99.90
13970;DHT22;7057;49.984;8.404;2022-09-06T05:49:19;18.50;99.90
13970;DHT22;7057;49.984;8.404;2022-09-06T05:51:49;18.60;99.90
13970;DHT22;7057;49.984;8.404;2022-09-06T05:54:17;18.70;99.90
13970;DHT22;7057;49.984;8.404;2022-09-06T05:56:45;18.80;99.90
13970;DHT22;7057;49.984;8.404;2022-09-06T05:59:13;18.90;99.90
13970;DHT22;7057;49.984;8.404;2022-09-06T06:01:46;19.00;99.90
13970;DHT22;7057;49.984;8.404;2022-09-06T06:04:14;19.10;99.90
13970;DHT22;7057;49.984;8.404;2022-09-06T06:06:44;19.10;99.90
13970;DHT22;7057;49.984;8.404;2022-09-06T06:09:11;19.00;99.90
13970;DHT22;7057;49.984;8.404;2022-09-06T06:11:39;19.00;99.90
13970;DHT22;7057;49.984;8.404;2022-09-06T06:14:08;18.90;99.90
13970;DHT22;7057;49.984;8.404;2022-09-06T06:16:35;19.00;99.90
13970;DHT22;7057;49.984;8.404;2022-09-06T06:19:02;19.00;99.90
13970;DHT22;7057;49.984;8.404;2022-09-06T06:21:31;19.00;99.90
13970;DHT22;7057;49.984;8.404;2022-09-06T06:24:00;19.00;99.90
13970;DHT22;7057;49.984;8.404;2022-09-06T06:26:28;19.00;99.90
13970;DHT22;7057;49.984;8.404;2022-09-06T06:28:56;19.20;99.90
13970;DHT22;7057;49.984;8.404;2022-09-06T06:31:28;19.20;99.90
13970;DHT22;7057;49.984;8.404;2022-09-06T06:33:55;19.20;99.90
13970;DHT22;7057;49.984;8.404;2022-09-06T06:36:24;19.40;99.90
13970;DHT22;7057;49.984;8.404;2022-09-06T06:38:53;19.60;99.90
13970;DHT22;7057;49.984;8.404;2022-09-06T06:41:22;19.80;99.90
13970;DHT22;7057;49.984;8.404;2022-09-06T06:43:53;19.80;99.90
13970;DHT22;7057;49.984;8.404;2022-09-06T06:46:21;19.90;99.90
13970;DHT22;7057;49.984;8.404;2022-09-06T06:48:50;20.10;99.90
13970;DHT22;7057;49.984;8.404;2022-09-06T06:51:20;20.30;99.90
13970;DHT22;7057;49.984;8.404;2022-09-06T06:53:48;20.40;99.90
13970;DHT22;7057;49.984;8.404;2022-09-06T06:56:17;20.50;99.90
13970;DHT22;7057;49.984;8.404;2022-09-06T06:58:45;20.50;99.90
13970;DHT22;7057;49.984;8.404;2022-09-06T07:01:13;20.70;99.90
13970;DHT22;7057;49.984;8.404;2022-09-06T07:03:40;20.80;99.90
13970;DHT22;7057;49.984;8.404;2022-09-06T07:06:09;21.10;99.90
13970;DHT22;7057;49.984;8.404;2022-09-06T07:08:36;21.20;99.90
13970;DHT22;7057;49.984;8.404;2022-09-06T07:11:04;21.40;99.90
13970;DHT22;7057;49.984;8.404;2022-09-06T07:13:32;21.40;99.90
13970;DHT22;7057;49.984;8.404;2022-09-06T07:16:10;21.40;99.90
13970;DHT22;7057;49.984;8.404;2022-09-06T07:18:38;21.40;99.90
13970;DHT22;7057;49.984;8.404;2022-09-06T07:21:13;21.60;99.90
13970;DHT22;7057;49.984;8.404;2022-09-06T07:23:41;21.60;99.90
13970;DHT22;7057;49.984;8.404;2022-09-06T07:26:13;21.70;99.90
13970;DHT22;7057;49.984;8.404;2022-09-06T07:28:41;21.60;99.90
13970;DHT22;7057;49.984;8.404;2022-09-06T07:31:08;21.30;99.90
13970;DHT22;7057;49.984;8.404;2022-09-06T07:33:36;21.20;99.90
13970;DHT22;7057;49.984;8.404;2022-09-06T07:36:04;21.50;99.90
13970;DHT22;7057;49.984;8.404;2022-09-06T07:38:34;21.60;99.90
13970;DHT22;7057;49.984;8.404;2022-09-06T07:41:03;22.20;99.90
13970;DHT22;7057;49.984;8.404;2022-09-06T07:43:31;22.20;99.90
13970;DHT22;7057;49.984;8.404;2022-09-06T07:45:59;22.40;99.90
13970;DHT22;7057;49.984;8.404;2022-09-06T07:48:28;22.50;99.90
13970;DHT22;7057;49.984;8.404;2022-09-06T07:51:02;22.60;99.90
13970;DHT22;7057;49.984;8.404;2022-09-06T07:53:30;22.70;99.90
13970;DHT22;7057;49.984;8.404;2022-09-06T07:55:59;22.80;99.90
13970;DHT22;7057;49.984;8.404;2022-09-06T07:58:27;23.00;99.90
13970;DHT22;7057;49.984;8.404;2022-09-06T08:01:13;22.90;99.90
13970;DHT22;7057;49.984;8.404;2022-09-06T08:03:40;22.90;99.90
13970;DHT22;7057;49.984;8.404;2022-09-06T08:06:07;22.20;99.90
13970;DHT22;7057;49.984;8.404;2022-09-06T08:08:34;22.00;99.90
13970;DHT22;7057;49.984;8.404;2022-09-06T08:11:03;22.10;99.90
13970;DHT22;7057;49.984;8.404;2022-09-06T08:13:32;22.20;99.90
13970;DHT22;7057;49.984;8.404;2022-09-06T08:16:00;22.10;99.90
13970;DHT22;7057;49.984;8.404;2022-09-06T08:18:27;21.80;99.90
13970;DHT22;7057;49.984;8.404;2022-09-06T08:20:55;22.20;99.90
13970;DHT22;7057;49.984;8.404;2022-09-06T08:23:22;22.40;99.90
13970;DHT22;7057;49.984;8.404;2022-09-06T08:25:55;22.60;99.90
13970;DHT22;7057;49.984;8.404;2022-09-06T08:28:25;22.50;99.90
13970;DHT22;7057;49.984;8.404;2022-09-06T08:30:52;22.60;99.90
13970;DHT22;7057;49.984;8.404;2022-09-06T08:33:19;22.70;99.90
13970;DHT22;7057;49.984;8.404;2022-09-06T08:35:56;22.90;99.90
13970;DHT22;7057;49.984;8.404;2022-09-06T08:38:24;23.30;99.90
13970;DHT22;7057;49.984;8.404;2022-09-06T08:40:53;23.70;99.90
13970;DHT22;7057;49.984;8.404;2022-09-06T08:43:21;24.00;99.90
13970;DHT22;7057;49.984;8.404;2022-09-06T08:45:54;24.20;99.90
13970;DHT22;7057;49.984;8.404;2022-09-06T08:48:23;24.20;99.90
13970;DHT22;7057;49.984;8.404;2022-09-06T08:50:59;24.10;99.90
13970;DHT22;7057;49.984;8.404;2022-09-06T08:53:34;24.20;99.90
13970;DHT22;7057;49.984;8.404;2022-09-06T08:56:10;24.40;99.90
13970;DHT22;7057;49.984;8.404;2022-09-06T08:58:52;24.70;99.90
13970;DHT22;7057;49.984;8.404;2022-09-06T09:01:28;24.80;99.90
13970;DHT22;7057;49.984;8.404;2022-09-06T09:04:02;24.70;99.90
13970;DHT22;7057;49.984;8.404;2022-09-06T09:06:31;24.80;99.90
13970;DHT22;7057;49.984;8.404;2022-09-06T09:09:03;24.80;99.90
13970;DHT22;7057;49.984;8.404;2022-09-06T09:11:31;25.00;99.90
13970;DHT22;7057;49.984;8.404;2022-09-06T09:14:03;25.20;99.90
13970;DHT22;7057;49.984;8.404;2022-09-06T09:16:33;25.40;99.90
13970;DHT22;7057;49.984;8.404;2022-09-06T09:19:02;25.50;99.90
13970;DHT22;7057;49.984;8.404;2022-09-06T09:21:31;25.20;99.90
13970;DHT22;7057;49.984;8.404;2022-09-06T09:24:03;25.40;99.90
13970;DHT22;7057;49.984;8.404;2022-09-06T09:26:33;25.40;99.90
13970;DHT22;7057;49.984;8.404;2022-09-06T09:29:03;25.20;99.90
13970;DHT22;7057;49.984;8.404;2022-09-06T09:31:37;25.40;99.90
13970;DHT22;7057;49.984;8.404;2022-09-06T09:34:05;25.70;99.90
13970;DHT22;7057;49.984;8.404;2022-09-06T09:36:36;25.90;99.90
13970;DHT22;7057;49.984;8.404;2022-09-06T09:39:08;25.80;99.90
13970;DHT22;7057;49.984;8.404;2022-09-06T09:41:37;25.40;99.90
13970;DHT22;7057;49.984;8.404;2022-09-06T09:44:08;25.10;99.90
13970;DHT22;7057;49.984;8.404;2022-09-06T09:46:38;24.90;99.90
13970;DHT22;7057;49.984;8.404;2022-09-06T09:49:08;25.20;99.90
13970;DHT22;7057;49.984;8.404;2022-09-06T09:51:37;25.10;99.90
13970;DHT22;7057;49.984;8.404;2022-09-06T09:54:07;25.40;99.90
13970;DHT22;7057;49.984;8.404;2022-09-06T09:56:44;25.40;99.90
13970;DHT22;7057;49.984;8.404;2022-09-06T09:59:19;25.50;99.90
13970;DHT22;7057;49.984;8.404;2022-09-06T10:01:49;25.90;99.90
13970;DHT22;7057;49.984;8.404;2022-09-06T10:04:20;25.90;99.90
13970;DHT22;7057;49.984;8.404;2022-09-06T10:06:48;26.00;99.90
13970;DHT22;7057;49.984;8.404;2022-09-06T10:09:19;26.10;99.90
13970;DHT22;7057;49.984;8.404;2022-09-06T10:11:54;25.90;99.90
13970;DHT22;7057;49.984;8.404;2022-09-06T10:14:28;25.90;99.90
13970;DHT22;7057;49.984;8.404;2022-09-06T10:16:57;25.90;99.90
13970;DHT22;7057;49.984;8.404;2022-09-06T10:19:39;25.80;99.90
13970;DHT22;7057;49.984;8.404;2022-09-06T10:22:28;25.60;99.90
13970;DHT22;7057;49.984;8.404;2022-09-06T10:30:57;25.90;99.90
13970;DHT22;7057;49.984;8.404;2022-09-06T10:33:37;26.40;99.90
13970;DHT22;7057;49.984;8.404;2022-09-06T10:36:06;26.70;99.90
13970;DHT22;7057;49.984;8.404;2022-09-06T10:38:49;26.60;99.90
13970;DHT22;7057;49.984;8.404;2022-09-06T10:41:42;26.40;99.90
13970;DHT22;7057;49.984;8.404;2022-09-06T10:44:21;26.20;99.90
13970;DHT22;7057;49.984;8.404;2022-09-06T10:46:57;26.50;99.90
13970;DHT22;7057;49.984;8.404;2022-09-06T10:49:28;27.00;99.90
13970;DHT22;7057;49.984;8.404;2022-09-06T10:51:59;27.20;99.90
13970;DHT22;7057;49.984;8.404;2022-09-06T10:54:29;27.40;99.90
13970;DHT22;7057;49.984;8.404;2022-09-06T10:57:03;27.50;99.90
13970;DHT22;7057;49.984;8.404;2022-09-06T10:59:35;27.20;99.90
13970;DHT22;7057;49.984;8.404;2022-09-06T11:02:14;26.90;99.90
13970;DHT22;7057;49.984;8.404;2022-09-06T11:04:45;26.80;99.90
13970;DHT22;7057;49.984;8.404;2022-09-06T11:07:19;27.00;99.90
13970;DHT22;7057;49.984;8.404;2022-09-06T11:09:53;26.80;99.90
13970;DHT22;7057;49.984;8.404;2022-09-06T11:12:28;26.90;99.90
13970;DHT22;7057;49.984;8.404;2022-09-06T11:14:59;27.00;99.90
13970;DHT22;7057;49.984;8.404;2022-09-06T11:17:30;27.10;99.90
13970;DHT22;7057;49.984;8.404;2022-09-06T11:20:04;27.40;99.90
13970;DHT22;7057;49.984;8.404;2022-09-06T11:22:46;27.70;99.90
13970;DHT22;7057;49.984;8.404;2022-09-06T11:25:41;27.60;99.90
13970;DHT22;7057;49.984;8.404;2022-09-06T11:28:14;27.40;99.90
13970;DHT22;7057;49.984;8.404;2022-09-06T11:30:45;27.80;99.90
13970;DHT22;7057;49.984;8.404;2022-09-06T11:33:21;27.60;99.90
13970;DHT22;7057;49.984;8.404;2022-09-06T11:35:51;27.90;99.90
13970;DHT22;7057;49.984;8.404;2022-09-06T11:38:24;28.10;99.90
13970;DHT22;7057;49.984;8.404;2022-09-06T11:40:57;28.10;99.90
13970;DHT22;7057;49.984;8.404;2022-09-06T11:43:45;28.00;99.90
13970;DHT22;7057;49.984;8.404;2022-09-06T11:49:28;28.20;99.90
13970;DHT22;7057;49.984;8.404;2022-09-06T11:51:58;28.30;99.90
13970;DHT22;7057;49.984;8.404;2022-09-06T11:54:40;28.20;99.90
13970;DHT22;7057;49.984;8.404;2022-09-06T11:57:13;27.90;99.90
13970;DHT22;7057;49.984;8.404;2022-09-06T11:59:50;28.10;99.90
13970;DHT22;7057;49.984;8.404;2022-09-06T12:02:35;28.30;99.90
13970;DHT22;7057;49.984;8.404;2022-09-06T12:05:14;28.50;99.90
13970;DHT22;7057;49.984;8.404;2022-09-06T12:08:22;28.70;99.90
13970;DHT22;7057;49.984;8.404;2022-09-06T12:11:01;29.00;99.90
13970;DHT22;7057;49.984;8.404;2022-09-06T12:13:47;29.20;99.90
13970;DHT22;7057;49.984;8.404;2022-09-06T12:16:16;29.10;99.90
13970;DHT22;7057;49.984;8.404;2022-09-06T12:18:56;28.60;99.90
13970;DHT22;7057;49.984;8.404;2022-09-06T12:21:44;28.70;99.90
13970;DHT22;7057;49.984;8.404;2022-09-06T12:27:18;29.00;99.90
13970;DHT22;7057;49.984;8.404;2022-09-06T12:29:51;29.30;99.90
13970;DHT22;7057;49.984;8.404;2022-09-06T12:32:23;29.60;99.90
13970;DHT22;7057;49.984;8.404;2022-09-06T12:34:52;29.50;99.90
13970;DHT22;7057;49.984;8.404;2022-09-06T12:37:32;29.20;99.90
13970;DHT22;7057;49.984;8.404;2022-09-06T12:39:59;28.90;99.90
13970;DHT22;7057;49.984;8.404;2022-09-06T12:42:29;29.10;99.90
13970;DHT22;7057;49.984;8.404;2022-09-06T12:44:57;29.40;99.90
13970;DHT22;7057;49.984;8.404;2022-09-06T12:47:26;29.20;99.90
13970;DHT22;7057;49.984;8.404;2022-09-06T12:50:06;29.20;99.90
13970;DHT22;7057;49.984;8.404;2022-09-06T12:52:43;29.20;99.90
13970;DHT22;7057;49.984;8.404;2022-09-06T12:55:15;29.50;99.90
13970;DHT22;7057;49.984;8.404;2022-09-06T12:57:48;29.70;99.90
13970;DHT22;7057;49.984;8.404;2022-09-06T13:00:16;29.80;99.90
13970;DHT22;7057;49.984;8.404;2022-09-06T13:02:52;29.20;99.90
13970;DHT22;7057;49.984;8.404;2022-09-06T13:05:21;29.60;99.90
13970;DHT22;7057;49.984;8.404;2022-09-06T13:07:51;30.00;99.90
13970;DHT22;7057;49.984;8.404;2022-09-06T13:10:22;30.10;99.90
13970;DHT22;7057;49.984;8.404;2022-09-06T13:12:55;30.10;99.90
13970;DHT22;7057;49.984;8.404;2022-09-06T13:15:24;29.90;99.90
13970;DHT22;7057;49.984;8.404;2022-09-06T13:17:53;29.70;99.90
13970;DHT22;7057;49.984;8.404;2022-09-06T13:20:27;29.80;99.90
13970;DHT22;7057;49.984;8.404;2022-09-06T13:23:06;29.90;99.90
13970;DHT22;7057;49.984;8.404;2022-09-06T13:25:44;30.10;99.90
13970;DHT22;7057;49.984;8.404;2022-09-06T13:28:22;30.00;99.90
13970;DHT22;7057;49.984;8.404;2022-09-06T13:31:01;30.40;99.90
13970;DHT22;7057;49.984;8.404;2022-09-06T13:33:29;30.40;99.90
13970;DHT22;7057;49.984;8.404;2022-09-06T13:36:15;30.60;99.90
13970;DHT22;7057;49.984;8.404;2022-09-06T13:38:45;30.60;99.90
13970;DHT22;7057;49.984;8.404;2022-09-06T13:41:33;30.60;99.90
13970;DHT22;7057;49.984;8.404;2022-09-06T13:44:04;30.20;99.90
13970;DHT22;7057;49.984;8.404;2022-09-06T13:46:33;30.10;99.90
13970;DHT22;7057;49.984;8.404;2022-09-06T13:49:01;29.90;99.90
13970;DHT22;7057;49.984;8.404;2022-09-06T13:51:28;29.80;99.90
13970;DHT22;7057;49.984;8.404;2022-09-06T13:54:03;30.00;99.90
13970;DHT22;7057;49.984;8.404;2022-09-06T13:56:30;30.30;99.90
13970;DHT22;7057;49.984;8.404;2022-09-06T13:58:58;30.40;99.90
13970;DHT22;7057;49.984;8.404;2022-09-06T14:01:26;30.50;99.90
13970;DHT22;7057;49.984;8.404;2022-09-06T14:03:53;30.60;99.90
13970;DHT22;7057;49.984;8.404;2022-09-06T14:06:21;30.20;99.90
13970;DHT22;7057;49.984;8.404;2022-09-06T14:08:48;30.30;99.90
13970;DHT22;7057;49.984;8.404;2022-09-06T14:11:16;30.20;99.90
13970;DHT22;7057;49.984;8.404;2022-09-06T14:13:43;30.30;99.90
13970;DHT22;7057;49.984;8.404;2022-09-06T14:16:10;30.30;99.90
13970;DHT22;7057;49.984;8.404;2022-09-06T14:18:39;30.20;99.90
13970;DHT22;7057;49.984;8.404;2022-09-06T14:21:06;30.40;99.90
13970;DHT22;7057;49.984;8.404;2022-09-06T14:23:34;30.20;99.90
13970;DHT22;7057;49.984;8.404;2022-09-06T14:26:02;30.30;99.90
13970;DHT22;7057;49.984;8.404;2022-09-06T14:28:31;30.40;99.90
13970;DHT22;7057;49.984;8.404;2022-09-06T14:31:08;30.50;99.90
13970;DHT22;7057;49.984;8.404;2022-09-06T14:33:36;30.60;99.90
13970;DHT22;7057;49.984;8.404;2022-09-06T14:36:07;30.90;99.90
13970;DHT22;7057;49.984;8.404;2022-09-06T14:38:35;31.00;99.90
13970;DHT22;7057;49.984;8.404;2022-09-06T14:41:03;31.00;99.90
13970;DHT22;7057;49.984;8.404;2022-09-06T14:43:31;31.10;99.90
13970;DHT22;7057;49.984;8.404;2022-09-06T14:46:03;31.00;99.90
13970;DHT22;7057;49.984;8.404;2022-09-06T14:48:31;31.10;99.90
13970;DHT22;7057;49.984;8.404;2022-09-06T14:51:05;30.90;99.90
13970;DHT22;7057;49.984;8.404;2022-09-06T14:53:36;30.70;99.90
13970;DHT22;7057;49.984;8.404;2022-09-06T14:56:03;30.60;99.90
13970;DHT22;7057;49.984;8.404;2022-09-06T14:58:31;30.60;99.90
13970;DHT22;7057;49.984;8.404;2022-09-06T15:01:09;30.50;99.90
13970;DHT22;7057;49.984;8.404;2022-09-06T15:03:38;30.30;99.90
13970;DHT22;7057;49.984;8.404;2022-09-06T15:06:06;30.10;99.90
13970;DHT22;7057;49.984;8.404;2022-09-06T15:08:35;29.80;99.90
13970;DHT22;7057;49.984;8.404;2022-09-06T15:11:04;29.70;99.90
13970;DHT22;7057;49.984;8.404;2022-09-06T15:13:33;29.90;99.90
13970;DHT22;7057;49.984;8.404;2022-09-06T15:16:02;29.80;99.90
13970;DHT22;7057;49.984;8.404;2022-09-06T15:18:29;29.70;99.90
13970;DHT22;7057;49.984;8.404;2022-09-06T15:20:56;29.60;99.90
13970;DHT22;7057;49.984;8.404;2022-09-06T15:23:26;29.70;99.90
13970;DHT22;7057;49.984;8.404;2022-09-06T15:25:54;29.80;99.90
13970;DHT22;7057;49.984;8.404;2022-09-06T15:28:21;29.80;99.90
13970;DHT22;7057;49.984;8.404;2022-09-06T15:30:49;29.80;99.90
13970;DHT22;7057;49.984;8.404;2022-09-06T15:33:16;29.70;99.90
13970;DHT22;7057;49.984;8.404;2022-09-06T15:35:51;29.60;99.90
13970;DHT22;7057;49.984;8.404;2022-09-06T15:38:19;29.60;99.90
13970;DHT22;7057;49.984;8.404;2022-09-06T15:40:46;29.50;99.90
13970;DHT22;7057;49.984;8.404;2022-09-06T15:43:14;29.40;99.90
13970;DHT22;7057;49.984;8.404;2022-09-06T15:45:45;29.40;99.90
13970;DHT22;7057;49.984;8.404;2022-09-06T15:48:14;29.30;99.90
13970;DHT22;7057;49.984;8.404;2022-09-06T15:50:41;29.30;99.90
13970;DHT22;7057;49.984;8.404;2022-09-06T15:53:09;29.20;99.90
13970;DHT22;7057;49.984;8.404;2022-09-06T15:55:36;29.20;99.90
13970;DHT22;7057;49.984;8.404;2022-09-06T15:58:24;29.10;99.90
13970;DHT22;7057;49.984;8.404;2022-09-06T16:01:04;29.10;99.90
13970;DHT22;7057;49.984;8.404;2022-09-06T16:03:33;29.00;99.90
13970;DHT22;7057;49.984;8.404;2022-09-06T16:06:02;29.00;99.90
13970;DHT22;7057;49.984;8.404;2022-09-06T16:08:30;28.80;99.90
13970;DHT22;7057;49.984;8.404;2022-09-06T16:10:57;28.50;99.90
13970;DHT22;7057;49.984;8.404;2022-09-06T16:13:32;28.40;99.90
13970;DHT22;7057;49.984;8.404;2022-09-06T16:16:01;27.90;99.90
13970;DHT22;7057;49.984;8.404;2022-09-06T16:18:30;26.10;99.90
13970;DHT22;7057;49.984;8.404;2022-09-06T16:21:02;25.10;99.90